Malaga, WA

4:22 PM PDT on May 04, 2015 (GMT -0700)
Grant County International | | Change Station
CLOSE
Current Station
Airport
Location: Moses Lake,
Elevation: 1184 ft
Nearby Weather Stations

Elev 1184 ft 47.21 °N, 119.32 °W | Updated 30 minutes ago

Partly Cloudy
Partly Cloudy
79 °F
Feels Like 79 °F
N
14
Wind Variable Wind from SE

Today
High -- | Low -- °F
--% Chance of Precip.
Yesterday
High -- | Low -- °F
Precip. -- in
5:39 AM 8:16 PM
Full, 99% visible
Pressure 29.74 in
Visibility 10.0 miles
Clouds Clear
Dew Point 29 °F
Humidity 16%
Rainfall 0.00 in
Snow Depth Not available.
UV 6 out of 12
Pollen 9.00 out of 12
Air Quality Not available.
Flu Activity Sporadic
METAR KMWH 042252Z 14012KT 10SM CLR 26/M02 A2974 RMK AO2 SLP070 T02611017

More Conditions Fewer Conditions

Pressure 29.74 in
Visibility 10.0 miles
Clouds Clear
Dew Point 29 °F
Humidity 16%
Rainfall 0.00 in
Snow Depth Not available.
UV 6 out of 12
Pollen 9.00 out of 12
Air Quality Not available.
Flu Activity Sporadic
METAR KMWH 042252Z 14012KT 10SM CLR 26/M02 A2974 RMK AO2 SLP070 T02611017

More Conditions Fewer Conditions

Nepal has a long way to go to dig out and rebuild from a devastating earthquake. We have teamed up with several charities and organizations to make contributing to the relief effort as easy as possible.
How you can help: Portlight Strategies | Red Cross

10-Day Weather Forecast

Almanac

Astronomy

May. 04, 2015 Rise Set
Actual Time
Civil Twilight
Nautical Twilight
Astronomical Twilight
Moon
Length of Visible Light
Length of Day
Tomorrow will be .
, % of the Moon is Illuminated

Today's Extremes

State Highs State Lows

Community

WunderPhotos

Upload Photos

1,818,726 photos uploaded!

WunderBlogs® & News

Nearby

Air Quality

  Air Quality AQ Index Pollutant
Not available.

Snow Depth

Station Depth Elevation

Earthquake Activity

City Distance Mag. Time & Date
Minimum magnitude displayed is 2.5.

Coastal Water Temperatures

Place Temperature

Stations

Nearby Weather Stations

Station Location Temp. Windchill Dew Point Humidity Wind Precip. Elev Updated Type